Time;durP1;ratioP1;P1;durP2;ratioP2;P2;SDS_P1;SDS_P2;PMS_P1;PMS_P2;Temp;Humidity;BMP_temperature;BMP_pressure;BME280_temperature;BME280_humidity;BME280_pressure;Samples;Min_cycle;Max_cycle;Signal;HPM_P1;HPM_P2
2021/09/16 00:01:23;;;;;;;7.32;1.90;;;18.10;99.90;;;;;;5057963;28;20040;-93
2021/09/16 00:03:48;;;;;;;4.93;1.40;;;18.10;99.90;;;;;;5055732;28;20510;-93
2021/09/16 00:06:14;;;;;;;4.07;1.48;;;18.20;99.90;;;;;;5055000;28;20457;-92
2021/09/16 00:08:40;;;;;;;2.17;1.33;;;18.40;99.90;;;;;;5054540;28;20021;-92
2021/09/16 00:11:06;;;;;;;4.47;1.77;;;18.20;99.90;;;;;;5054588;28;20078;-94
2021/09/16 00:13:31;;;;;;;3.22;1.23;;;18.30;99.90;;;;;;5055520;28;20097;-92
2021/09/16 00:15:57;;;;;;;2.92;1.50;;;18.40;99.90;;;;;;5056219;28;20095;-92
2021/09/16 00:18:23;;;;;;;3.28;1.17;;;18.40;99.90;;;;;;5056061;28;20036;-94
2021/09/16 00:20:50;;;;;;;2.22;1.17;;;18.30;99.90;;;;;;5055178;28;20025;-94
2021/09/16 00:23:16;;;;;;;3.88;1.40;;;18.30;99.90;;;;;;5058324;28;20444;-93
2021/09/16 00:25:42;;;;;;;2.10;1.42;;;18.30;99.90;;;;;;5059276;28;20033;-93
2021/09/16 00:28:08;;;;;;;3.22;1.17;;;18.30;99.90;;;;;;5056782;28;20025;-94
2021/09/16 00:30:33;;;;;;;2.47;1.10;;;18.30;99.90;;;;;;5059843;28;20078;-94
2021/09/16 00:32:59;;;;;;;4.00;1.00;;;18.30;99.90;;;;;;5057396;28;20020;-92
2021/09/16 00:35:25;;;;;;;2.08;1.30;;;18.40;99.90;;;;;;5058919;28;20032;-94
2021/09/16 00:37:51;;;;;;;3.08;1.00;;;18.40;99.90;;;;;;5057976;28;20021;-92
2021/09/16 00:40:17;;;;;;;3.05;1.05;;;18.50;99.90;;;;;;5054843;28;20028;-93
2021/09/16 00:42:43;;;;;;;5.35;1.08;;;18.40;99.90;;;;;;5057781;28;20017;-93
2021/09/16 00:45:10;;;;;;;3.67;1.10;;;18.40;99.90;;;;;;5055221;28;20025;-92
2021/09/16 00:47:39;;;;;;;3.28;1.30;;;18.30;99.90;;;;;;5055722;28;20033;-92
2021/09/16 00:50:05;;;;;;;4.75;1.15;;;18.20;99.90;;;;;;5056327;28;20491;-93
2021/09/16 00:52:32;;;;;;;2.22;1.02;;;18.30;99.90;;;;;;5055409;28;20079;-93
2021/09/16 00:55:01;;;;;;;4.20;1.35;;;18.20;99.90;;;;;;5055313;28;20044;-92
2021/09/16 00:57:28;;;;;;;2.40;1.00;;;18.30;99.90;;;;;;5054222;28;20027;-92
2021/09/16 00:59:56;;;;;;;2.55;1.08;;;18.30;99.90;;;;;;5056004;28;20093;-92
2021/09/16 01:02:22;;;;;;;2.08;1.40;;;18.30;99.90;;;;;;5057276;28;20017;-92
2021/09/16 01:04:47;;;;;;;3.80;1.10;;;18.40;99.90;;;;;;5058919;28;20032;-93
2021/09/16 01:07:14;;;;;;;2.45;1.20;;;18.40;99.90;;;;;;5056652;28;20029;-93
2021/09/16 01:09:42;;;;;;;3.15;1.33;;;18.40;99.90;;;;;;5058918;28;20029;-92
2021/09/16 01:12:08;;;;;;;3.60;1.10;;;18.30;99.90;;;;;;5056375;28;20067;-93
2021/09/16 01:14:35;;;;;;;3.70;1.10;;;18.30;99.90;;;;;;5059826;28;20033;-92
2021/09/16 01:17:02;;;;;;;3.15;1.10;;;18.30;99.90;;;;;;5056639;28;20025;-92
2021/09/16 01:19:28;;;;;;;5.53;1.20;;;18.30;99.90;;;;;;5056305;28;20500;-92
2021/09/16 01:21:54;;;;;;;4.45;1.42;;;18.20;99.90;;;;;;5055000;28;20033;-92
2021/09/16 01:24:20;;;;;;;1.58;1.00;;;18.30;99.90;;;;;;5056726;28;20028;-92
2021/09/16 01:26:46;;;;;;;1.70;0.90;;;18.30;99.90;;;;;;5055805;28;20036;-93
2021/09/16 01:29:13;;;;;;;2.50;1.23;;;18.30;99.90;;;;;;5056011;28;20021;-92
2021/09/16 01:31:45;;;;;;;2.40;1.25;;;18.30;99.90;;;;;;5055321;28;20480;-91
2021/09/16 01:34:13;;;;;;;2.67;1.08;;;18.30;99.90;;;;;;5054330;28;20025;-93
2021/09/16 01:36:41;;;;;;;2.05;1.02;;;18.30;99.90;;;;;;5054532;28;20021;-92
2021/09/16 01:39:10;;;;;;;6.03;1.27;;;18.30;99.90;;;;;;5058061;28;20024;-93
2021/09/16 01:41:36;;;;;;;1.80;1.00;;;18.40;99.90;;;;;;5055341;28;20049;-93
2021/09/16 01:44:03;;;;;;;1.33;0.93;;;18.40;99.90;;;;;;5056102;28;20039;-93
2021/09/16 01:46:29;;;;;;;1.92;1.25;;;18.40;99.90;;;;;;5055156;28;20096;-92
2021/09/16 01:48:59;;;;;;;2.35;0.98;;;18.30;99.90;;;;;;5055791;28;20021;-93
2021/09/16 01:51:25;;;;;;;5.47;1.10;;;18.30;99.90;;;;;;5055833;28;20100;-92
2021/09/16 01:53:51;;;;;;;1.83;0.90;;;18.30;99.90;;;;;;5055401;28;20516;-92
2021/09/16 01:56:17;;;;;;;2.08;1.00;;;18.20;99.90;;;;;;5055655;28;20025;-93
2021/09/16 01:58:42;;;;;;;1.55;1.30;;;18.30;99.90;;;;;;5056846;28;20051;-93
2021/09/16 02:01:08;;;;;;;1.63;1.08;;;18.40;99.90;;;;;;5062060;28;20029;-91
2021/09/16 02:03:34;;;;;;;4.00;1.10;;;18.40;99.90;;;;;;5067421;28;20017;-92
2021/09/16 02:05:59;;;;;;;4.07;0.98;;;18.30;99.90;;;;;;5063646;28;20067;-93
2021/09/16 02:08:25;;;;;;;3.13;0.98;;;18.30;99.90;;;;;;5059014;28;20017;-92
2021/09/16 02:10:52;;;;;;;1.27;1.10;;;18.20;99.90;;;;;;5057905;28;20151;-92
2021/09/16 02:13:17;;;;;;;2.15;1.10;;;18.20;99.90;;;;;;5058577;28;20057;-92
2021/09/16 02:15:43;;;;;;;3.25;1.10;;;18.20;99.90;;;;;;5058216;28;20082;-92
2021/09/16 02:18:09;;;;;;;1.45;1.10;;;18.30;99.90;;;;;;5057762;28;20071;-92
2021/09/16 02:20:35;;;;;;;1.95;0.98;;;18.30;99.90;;;;;;5057238;28;20025;-92
2021/09/16 02:23:00;;;;;;;3.67;0.88;;;18.30;99.90;;;;;;5057962;28;20017;-92
2021/09/16 02:25:26;;;;;;;3.08;1.38;;;18.30;99.90;;;;;;5058435;28;20021;-92
2021/09/16 02:27:52;;;;;;;3.50;1.00;;;18.40;99.90;;;;;;5058519;28;20430;-92
2021/09/16 02:30:18;;;;;;;2.72;0.85;;;18.30;99.90;;;;;;5056984;28;20029;-92
2021/09/16 02:32:44;;;;;;;3.15;1.13;;;18.20;99.90;;;;;;5057248;28;20389;-91
2021/09/16 02:35:11;;;;;;;1.42;0.98;;;18.10;99.90;;;;;;5057198;28;20082;-92
2021/09/16 02:37:37;;;;;;;4.78;1.10;;;18.00;99.90;;;;;;5056153;28;20087;-92
2021/09/16 02:40:05;;;;;;;3.15;1.20;;;18.10;99.90;;;;;;5056771;28;20477;-92
2021/09/16 02:42:31;;;;;;;4.40;1.13;;;18.10;99.90;;;;;;5057043;28;20049;-91
2021/09/16 02:44:57;;;;;;;3.35;1.25;;;18.00;99.90;;;;;;5055841;28;20079;-91
2021/09/16 02:47:23;;;;;;;2.10;0.95;;;18.00;99.90;;;;;;5057241;28;20075;-90
2021/09/16 02:49:48;;;;;;;2.53;1.05;;;18.00;99.90;;;;;;5057180;28;20028;-92
2021/09/16 02:52:14;;;;;;;2.00;1.05;;;18.00;99.90;;;;;;5058870;28;20044;-91
2021/09/16 02:54:40;;;;;;;1.95;0.90;;;18.10;99.90;;;;;;5058060;28;20098;-92
2021/09/16 02:57:05;;;;;;;5.07;1.00;;;18.00;99.90;;;;;;5056562;28;20119;-91
2021/09/16 02:59:31;;;;;;;3.45;1.10;;;18.20;99.90;;;;;;5055668;28;20098;-90
2021/09/16 03:01:57;;;;;;;3.45;1.35;;;18.30;99.90;;;;;;5057689;28;20538;-90
2021/09/16 03:04:23;;;;;;;2.35;0.80;;;18.30;99.90;;;;;;5059267;28;20195;-91
2021/09/16 03:06:48;;;;;;;5.65;1.23;;;18.20;99.90;;;;;;5057427;28;20024;-90
2021/09/16 03:09:14;;;;;;;5.25;1.10;;;18.00;99.90;;;;;;5057215;28;20021;-92
2021/09/16 03:11:40;;;;;;;2.35;1.08;;;17.90;99.90;;;;;;5056385;28;20127;-91
2021/09/16 03:14:06;;;;;;;2.35;1.27;;;17.80;99.90;;;;;;5057602;28;20021;-91
2021/09/16 03:16:31;;;;;;;2.15;1.15;;;17.90;99.90;;;;;;5057952;28;20029;-92
2021/09/16 03:18:57;;;;;;;3.75;1.00;;;18.00;99.90;;;;;;5057849;28;20025;-92
2021/09/16 03:21:23;;;;;;;3.25;1.02;;;18.00;99.90;;;;;;5060519;28;20036;-92
2021/09/16 03:23:48;;;;;;;4.93;1.10;;;18.00;99.90;;;;;;5061824;28;20029;-93
2021/09/16 03:26:14;;;;;;;2.72;1.00;;;17.80;99.90;;;;;;5057921;28;20112;-93
2021/09/16 03:28:40;;;;;;;3.42;1.33;;;17.90;99.90;;;;;;5057158;28;20025;-93
2021/09/16 03:31:07;;;;;;;6.05;1.70;;;18.00;99.90;;;;;;5054998;28;20083;-93
2021/09/16 03:33:34;;;;;;;2.85;1.20;;;18.10;99.90;;;;;;5055149;28;20113;-93
2021/09/16 03:35:59;;;;;;;2.20;1.10;;;18.20;99.90;;;;;;5054526;28;20062;-94
2021/09/16 03:38:26;;;;;;;1.50;1.00;;;18.20;99.90;;;;;;5056410;28;20029;-94
2021/09/16 03:40:52;;;;;;;2.67;1.13;;;18.30;99.90;;;;;;5054760;28;20021;-91
2021/09/16 03:43:17;;;;;;;1.45;1.00;;;18.20;99.90;;;;;;5054587;28;20025;-92
2021/09/16 03:45:43;;;;;;;2.67;1.10;;;18.20;99.90;;;;;;5054558;28;20476;-93
2021/09/16 03:48:09;;;;;;;2.78;1.08;;;18.20;99.90;;;;;;5055646;28;20028;-92
2021/09/16 03:50:36;;;;;;;5.07;1.30;;;18.20;99.90;;;;;;5054627;28;20025;-91
2021/09/16 03:53:02;;;;;;;2.03;0.80;;;18.20;99.90;;;;;;5056426;28;20127;-92
2021/09/16 03:55:29;;;;;;;1.73;0.90;;;18.10;99.90;;;;;;5057282;28;20025;-92
2021/09/16 03:57:54;;;;;;;3.00;1.00;;;18.10;99.90;;;;;;5057311;28;20056;-91
2021/09/16 04:00:20;;;;;;;2.75;1.10;;;18.10;99.90;;;;;;5057876;28;20029;-93
2021/09/16 04:02:46;;;;;;;4.35;1.00;;;18.00;99.90;;;;;;5060404;28;20496;-93
2021/09/16 04:05:11;;;;;;;4.38;1.20;;;18.00;99.90;;;;;;5059071;28;20024;-92
2021/09/16 04:07:37;;;;;;;2.28;1.13;;;17.90;99.90;;;;;;5062447;28;20056;-92
2021/09/16 04:10:04;;;;;;;6.72;1.13;;;17.90;99.90;;;;;;5060695;28;20059;-93
2021/09/16 04:12:30;;;;;;;3.15;1.30;;;17.80;99.90;;;;;;5061858;28;20020;-93
2021/09/16 04:14:56;;;;;;;4.93;1.13;;;17.80;99.90;;;;;;5069636;28;20078;-93
2021/09/16 04:17:22;;;;;;;2.40;1.13;;;17.90;99.90;;;;;;5067491;28;20473;-92
2021/09/16 04:19:47;;;;;;;5.30;1.30;;;18.00;99.90;;;;;;5058369;28;20044;-92
2021/09/16 04:22:13;;;;;;;3.63;1.20;;;18.00;99.90;;;;;;5057216;28;20025;-93
2021/09/16 04:24:39;;;;;;;3.05;1.00;;;18.00;99.90;;;;;;5056201;28;20036;-93
2021/09/16 04:27:05;;;;;;;1.83;0.90;;;18.00;99.90;;;;;;5056197;28;20021;-94
2021/09/16 04:29:30;;;;;;;4.80;1.33;;;18.10;99.90;;;;;;5054828;28;20105;-93
2021/09/16 04:31:56;;;;;;;3.33;1.10;;;18.10;99.90;;;;;;5055505;28;20468;-93
2021/09/16 04:34:23;;;;;;;2.47;1.10;;;18.20;99.90;;;;;;5037246;28;20210;-92
2021/09/16 04:36:49;;;;;;;2.67;1.38;;;18.20;99.90;;;;;;5054063;28;20393;-92
2021/09/16 04:39:14;;;;;;;2.70;1.13;;;18.00;99.90;;;;;;5054693;28;20032;-91
2021/09/16 04:41:40;;;;;;;3.90;1.42;;;18.00;99.90;;;;;;5057874;28;20080;-91
2021/09/16 04:44:06;;;;;;;3.92;1.50;;;18.00;99.90;;;;;;5060074;28;20020;-90
2021/09/16 04:46:32;;;;;;;8.00;1.60;;;17.90;99.90;;;;;;5058324;28;20027;-91
2021/09/16 04:48:58;;;;;;;4.43;1.13;;;17.80;99.90;;;;;;5053736;28;20075;-90
2021/09/16 04:51:24;;;;;;;5.07;1.73;;;17.80;99.90;;;;;;5052023;28;20028;-90
2021/09/16 04:53:50;;;;;;;3.17;1.35;;;17.80;99.90;;;;;;5052200;28;20099;-90
2021/09/16 04:56:15;;;;;;;6.80;1.50;;;17.90;99.90;;;;;;5052402;28;20021;-91
2021/09/16 04:58:41;;;;;;;7.20;1.30;;;17.90;99.90;;;;;;5052551;28;20392;-89
2021/09/16 05:01:07;;;;;;;5.72;1.42;;;17.80;99.90;;;;;;5052580;28;20056;-90
2021/09/16 05:03:33;;;;;;;4.63;1.40;;;17.80;99.90;;;;;;5053217;28;20032;-92
2021/09/16 05:05:58;;;;;;;3.53;1.52;;;17.70;99.90;;;;;;5052942;28;20385;-91
2021/09/16 05:08:24;;;;;;;3.30;1.67;;;17.70;99.90;;;;;;5052833;28;20112;-93
2021/09/16 05:10:50;;;;;;;3.90;1.27;;;17.60;99.90;;;;;;5052846;28;20021;-91
2021/09/16 05:13:15;;;;;;;3.67;1.30;;;17.60;99.90;;;;;;5052862;28;20489;-91
2021/09/16 05:15:41;;;;;;;4.82;1.50;;;17.60;99.90;;;;;;5052757;28;20489;-91
2021/09/16 05:18:07;;;;;;;5.13;1.50;;;17.60;99.90;;;;;;5052983;28;20025;-90
2021/09/16 05:20:34;;;;;;;5.65;1.45;;;17.60;99.90;;;;;;5052378;28;20485;-91
2021/09/16 05:22:59;;;;;;;3.72;1.38;;;17.60;99.90;;;;;;5052687;28;20027;-90
2021/09/16 05:25:26;;;;;;;3.70;1.40;;;17.70;99.90;;;;;;5052998;28;20021;-90
2021/09/16 05:27:52;;;;;;;2.92;1.40;;;17.70;99.90;;;;;;5052990;28;20021;-92
2021/09/16 05:30:18;;;;;;;3.75;1.27;;;17.70;99.90;;;;;;5053195;28;20365;-91
2021/09/16 05:32:43;;;;;;;1.95;1.25;;;17.70;99.90;;;;;;5053941;28;20083;-91
2021/09/16 05:35:09;;;;;;;2.55;1.17;;;17.80;99.90;;;;;;5053744;28;20029;-92
2021/09/16 05:37:36;;;;;;;3.95;1.25;;;17.80;99.90;;;;;;5053073;28;20131;-93
2021/09/16 05:40:02;;;;;;;2.70;1.40;;;17.80;99.90;;;;;;5056003;28;20107;-91
2021/09/16 05:42:28;;;;;;;2.75;1.42;;;17.80;99.90;;;;;;5056756;28;20025;-92
2021/09/16 05:44:54;;;;;;;5.88;1.60;;;17.90;99.90;;;;;;5056850;28;20070;-92
2021/09/16 05:47:20;;;;;;;5.38;1.40;;;17.80;99.90;;;;;;5060554;28;20551;-92
2021/09/16 05:49:46;;;;;;;7.75;1.80;;;17.80;99.90;;;;;;5066087;28;20079;-93
2021/09/16 05:52:12;;;;;;;4.60;1.42;;;17.80;99.90;;;;;;5068550;28;20033;-94
2021/09/16 05:54:38;;;;;;;2.88;1.20;;;17.80;99.90;;;;;;5039423;28;20088;-93
2021/09/16 05:57:05;;;;;;;6.35;1.65;;;17.80;99.90;;;;;;5073781;28;20489;-94
2021/09/16 05:59:32;;;;;;;4.45;1.40;;;17.80;99.90;;;;;;5055217;28;20052;-95
2021/09/16 06:01:58;;;;;;;4.32;1.60;;;17.70;99.90;;;;;;5071785;28;20089;-95
2021/09/16 06:04:27;;;;;;;5.55;1.45;;;17.70;99.90;;;;;;5058488;28;20025;-95
2021/09/16 06:06:53;;;;;;;3.85;1.52;;;17.70;99.90;;;;;;5074871;28;20021;-96
2021/09/16 06:09:19;;;;;;;6.38;1.50;;;17.80;99.90;;;;;;5073302;28;20029;-95
2021/09/16 06:11:45;;;;;;;5.05;1.83;;;17.70;99.90;;;;;;5074388;28;20020;-95
2021/09/16 06:14:11;;;;;;;4.10;1.60;;;17.80;99.90;;;;;;5068888;28;20056;-94
2021/09/16 06:16:37;;;;;;;6.20;1.45;;;17.60;99.90;;;;;;5075344;28;20336;-95
2021/09/16 06:19:06;;;;;;;3.35;1.58;;;17.70;99.90;;;;;;5072904;28;20032;-95
2021/09/16 06:21:32;;;;;;;4.55;1.83;;;17.80;99.90;;;;;;5079734;28;20021;-94
2021/09/16 06:23:58;;;;;;;5.57;2.42;;;17.90;99.90;;;;;;5079574;28;20036;-95
2021/09/16 06:26:24;;;;;;;3.35;1.80;;;18.00;99.90;;;;;;5071319;28;20025;-95
2021/09/16 06:28:50;;;;;;;3.92;1.70;;;17.90;99.90;;;;;;5070819;28;20021;-96
2021/09/16 06:31:16;;;;;;;3.95;1.50;;;18.00;99.90;;;;;;5069824;28;20024;-94
2021/09/16 06:33:42;;;;;;;6.03;1.55;;;18.00;99.90;;;;;;5068370;28;20032;-94
2021/09/16 06:36:08;;;;;;;5.55;1.80;;;18.10;99.90;;;;;;5067879;28;20052;-95
2021/09/16 06:38:34;;;;;;;7.35;1.83;;;18.10;99.90;;;;;;5072865;28;20021;-95
2021/09/16 06:41:02;;;;;;;6.70;1.58;;;18.10;99.90;;;;;;5075073;28;20044;-95
2021/09/16 06:43:30;;;;;;;6.75;1.75;;;18.10;99.90;;;;;;5072287;28;20105;-96
2021/09/16 06:45:56;;;;;;;2.92;1.55;;;18.20;99.90;;;;;;5073085;28;20108;-95
2021/09/16 06:48:22;;;;;;;3.72;1.80;;;18.40;99.90;;;;;;5072743;28;20032;-95
2021/09/16 06:50:48;;;;;;;3.03;1.70;;;18.40;99.90;;;;;;5065799;28;20036;-95
2021/09/16 06:53:14;;;;;;;3.38;1.63;;;18.40;99.90;;;;;;5067071;28;20097;-94
2021/09/16 06:55:40;;;;;;;3.30;1.67;;;18.50;99.90;;;;;;5070334;28;20036;-95
2021/09/16 06:58:06;;;;;;;5.35;1.60;;;18.60;99.90;;;;;;5072662;28;20024;-94
2021/09/16 07:00:35;;;;;;;4.55;1.35;;;18.60;99.90;;;;;;5071526;28;20013;-94
2021/09/16 07:03:01;;;;;;;2.78;1.15;;;18.70;99.90;;;;;;5068460;28;20021;-95
2021/09/16 07:05:27;;;;;;;6.93;1.80;;;18.70;99.90;;;;;;5066591;28;20028;-94
2021/09/16 07:07:53;;;;;;;4.82;1.50;;;18.70;99.90;;;;;;5065174;28;20055;-94
2021/09/16 07:10:19;;;;;;;3.92;1.73;;;18.70;99.90;;;;;;5064541;28;20431;-94
2021/09/16 07:12:45;;;;;;;5.43;1.30;;;18.70;99.90;;;;;;5065603;28;20067;-94
2021/09/16 07:15:11;;;;;;;5.57;1.50;;;18.70;99.90;;;;;;5063760;28;20029;-94
2021/09/16 07:17:37;;;;;;;4.43;1.55;;;18.70;99.90;;;;;;5067533;28;20100;-93
2021/09/16 07:20:03;;;;;;;4.82;1.73;;;18.60;99.90;;;;;;5060058;28;20032;-94
2021/09/16 07:22:29;;;;;;;3.75;1.60;;;18.70;99.90;;;;;;5064133;28;20089;-93
2021/09/16 07:24:55;;;;;;;6.57;1.80;;;18.70;99.90;;;;;;5064411;28;20115;-94
2021/09/16 07:27:21;;;;;;;7.47;1.60;;;18.70;99.90;;;;;;5060455;28;20028;-93
2021/09/16 07:29:47;;;;;;;4.57;1.70;;;18.60;99.90;;;;;;5060965;28;20025;-93
2021/09/16 07:32:13;;;;;;;2.50;1.30;;;18.70;99.90;;;;;;5057848;28;20540;-93
2021/09/16 07:34:39;;;;;;;4.10;1.42;;;18.60;99.90;;;;;;5056807;28;20029;-93
2021/09/16 07:37:06;;;;;;;3.17;1.20;;;18.50;99.90;;;;;;5056440;28;20115;-94
2021/09/16 07:39:32;;;;;;;3.53;1.30;;;18.40;99.90;;;;;;5056919;28;20041;-93
2021/09/16 07:41:58;;;;;;;3.05;1.48;;;18.50;99.90;;;;;;5058839;28;20430;-93
2021/09/16 07:44:24;;;;;;;2.58;1.60;;;18.40;99.90;;;;;;5056963;28;20021;-94
2021/09/16 07:46:50;;;;;;;3.47;1.65;;;18.20;99.90;;;;;;5057788;28;20017;-93
2021/09/16 07:49:16;;;;;;;3.50;2.15;;;18.20;99.90;;;;;;5058712;28;20028;-93
2021/09/16 07:51:42;;;;;;;3.15;1.60;;;18.20;99.90;;;;;;5057872;28;20029;-93
2021/09/16 07:54:11;;;;;;;2.88;1.50;;;18.20;99.90;;;;;;5058298;28;20064;-96
2021/09/16 07:56:39;;;;;;;2.22;1.10;;;18.20;99.90;;;;;;5059647;28;20087;-93
2021/09/16 07:59:06;;;;;;;1.80;0.80;;;18.10;99.90;;;;;;5061237;28;20025;-92
2021/09/16 08:01:32;;;;;;;1.30;0.85;;;18.10;99.90;;;;;;5059637;28;20120;-94
2021/09/16 08:03:58;;;;;;;2.10;1.00;;;18.10;99.90;;;;;;5056553;28;20063;-94
2021/09/16 08:06:24;;;;;;;0.77;0.65;;;18.20;99.90;;;;;;5059875;28;20021;-92
2021/09/16 08:08:49;;;;;;;2.30;0.95;;;18.10;99.90;;;;;;5067121;28;20025;-92
2021/09/16 08:11:15;;;;;;;3.22;0.63;;;18.20;99.90;;;;;;5061395;28;20082;-93
2021/09/16 08:13:41;;;;;;;2.53;0.60;;;18.10;99.90;;;;;;5054463;28;20021;-93
2021/09/16 08:16:07;;;;;;;1.75;0.50;;;18.00;99.90;;;;;;5053726;28;20369;-90
2021/09/16 08:18:33;;;;;;;1.52;0.60;;;18.00;99.90;;;;;;5053545;28;20384;-92
2021/09/16 08:20:58;;;;;;;1.75;0.60;;;18.00;99.90;;;;;;5053333;28;20025;-92
2021/09/16 08:23:24;;;;;;;1.70;0.43;;;18.00;99.90;;;;;;5053582;28;20060;-92
2021/09/16 08:25:50;;;;;;;4.07;0.68;;;18.00;99.90;;;;;;5053702;28;20060;-91
2021/09/16 08:28:16;;;;;;;1.02;0.60;;;18.10;99.90;;;;;;5053734;28;20544;-92
2021/09/16 08:30:43;;;;;;;2.38;0.88;;;18.00;99.90;;;;;;5068962;28;20021;-91
2021/09/16 08:33:08;;;;;;;3.70;0.52;;;17.90;99.90;;;;;;5076993;28;20060;-92
2021/09/16 08:35:35;;;;;;;1.33;0.52;;;17.80;99.90;;;;;;5061839;28;20029;-91
2021/09/16 08:38:01;;;;;;;3.55;0.85;;;17.80;99.90;;;;;;5054081;28;20526;-93
2021/09/16 08:40:26;;;;;;;0.98;0.50;;;17.80;99.90;;;;;;5054924;28;20473;-94
2021/09/16 08:42:52;;;;;;;1.63;0.63;;;17.80;99.90;;;;;;5053669;28;20058;-91
2021/09/16 08:45:20;;;;;;;3.10;0.60;;;17.80;99.90;;;;;;5053867;28;20021;-93
2021/09/16 08:47:48;;;;;;;0.75;0.50;;;17.60;99.90;;;;;;5053626;28;20503;-92
2021/09/16 08:50:15;;;;;;;1.27;0.50;;;17.60;99.90;;;;;;5053164;28;20025;-92
2021/09/16 08:52:44;;;;;;;1.00;0.50;;;17.60;99.90;;;;;;5052706;28;20029;-94
2021/09/16 08:55:12;;;;;;;1.83;0.60;;;17.50;99.90;;;;;;5033613;28;20042;-94
2021/09/16 08:57:43;;;;;;;0.70;0.35;;;17.40;99.90;;;;;;5018233;28;20033;-94
2021/09/16 09:00:15;;;;;;;1.88;0.60;;;17.30;99.90;;;;;;5022824;28;20037;-94
2021/09/16 09:02:44;;;;;;;0.90;0.70;;;17.40;99.90;;;;;;5028874;28;20053;-94
2021/09/16 09:05:11;;;;;;;1.08;0.90;;;17.30;99.90;;;;;;5017622;28;20025;-95
2021/09/16 09:07:39;;;;;;;1.70;1.00;;;17.40;99.90;;;;;;5034669;28;20032;-95
2021/09/16 09:10:07;;;;;;;5.30;1.33;;;17.40;99.90;;;;;;5030797;28;20478;-95
2021/09/16 09:12:35;;;;;;;1.80;1.48;;;17.30;99.90;;;;;;5027134;28;20508;-96
2021/09/16 09:15:03;;;;;;;2.38;2.05;;;17.30;99.90;;;;;;5025797;28;20040;-96
2021/09/16 09:17:33;;;;;;;3.50;2.30;;;17.30;99.90;;;;;;5027305;28;20033;-96
2021/09/16 09:20:08;;;;;;;2.97;2.10;;;17.20;99.90;;;;;;5021294;28;20026;-94
2021/09/16 09:22:37;;;;;;;2.78;2.50;;;17.30;99.90;;;;;;5017588;28;20021;-95
2021/09/16 09:25:11;;;;;;;2.50;1.90;;;17.50;99.90;;;;;;5017346;28;20022;-93
2021/09/16 09:27:46;;;;;;;4.20;3.33;;;17.50;99.90;;;;;;5016913;28;20029;-94
2021/09/16 09:30:15;;;;;;;4.43;2.85;;;17.40;99.90;;;;;;5017766;28;20029;-93
2021/09/16 09:32:49;;;;;;;4.80;3.50;;;17.40;99.90;;;;;;5016341;28;20030;-94
2021/09/16 09:35:36;;;;;;;5.13;2.92;;;17.50;99.90;;;;;;5017262;28;20029;-94
2021/09/16 09:38:24;;;;;;;3.83;3.42;;;17.40;99.90;;;;;;5016647;28;20034;-95
2021/09/16 09:40:56;;;;;;;6.03;4.97;;;17.40;99.90;;;;;;5016651;28;20034;-93
2021/09/16 09:43:30;;;;;;;7.15;5.72;;;17.40;99.90;;;;;;5016854;28;20049;-94
2021/09/16 09:46:02;;;;;;;5.50;4.00;;;17.50;99.90;;;;;;5017407;28;20095;-94
2021/09/16 09:48:28;;;;;;;5.78;4.50;;;17.60;99.90;;;;;;5017094;28;20203;-95
2021/09/16 09:50:55;;;;;;;7.10;5.75;;;17.60;99.90;;;;;;5016257;28;20029;-92
2021/09/16 09:53:21;;;;;;;7.88;6.07;;;17.60;99.90;;;;;;5025218;28;20051;-93
2021/09/16 09:55:47;;;;;;;5.07;4.57;;;17.80;99.90;;;;;;5052833;28;20029;-94
2021/09/16 09:58:13;;;;;;;6.80;5.93;;;17.90;99.90;;;;;;5052833;28;20480;-94
2021/09/16 10:00:38;;;;;;;6.68;4.82;;;17.70;99.90;;;;;;5053046;28;20101;-95
2021/09/16 10:03:04;;;;;;;8.88;6.10;;;17.80;99.90;;;;;;5053005;28;20500;-93
2021/09/16 10:05:38;;;;;;;6.65;5.70;;;17.90;99.90;;;;;;5053221;28;20021;-95
2021/09/16 10:08:09;;;;;;;8.53;5.73;;;18.10;99.90;;;;;;5053845;28;20029;-94
2021/09/16 10:10:49;;;;;;;9.77;6.63;;;18.10;99.90;;;;;;5053078;28;20052;-94
2021/09/16 10:13:17;;;;;;;5.10;4.68;;;18.40;99.90;;;;;;5053142;28;20029;-92
2021/09/16 10:15:44;;;;;;;4.60;4.07;;;18.50;99.90;;;;;;5052604;28;20057;-91
2021/09/16 10:18:10;;;;;;;5.38;4.88;;;18.60;99.90;;;;;;5052547;28;20025;-93
2021/09/16 10:20:36;;;;;;;7.30;5.95;;;18.50;99.90;;;;;;5052245;28;20074;-91
2021/09/16 10:23:05;;;;;;;8.07;6.05;;;18.40;99.90;;;;;;5052942;28;20036;-92
2021/09/16 10:25:32;;;;;;;5.72;5.00;;;18.20;99.90;;;;;;5052645;28;20029;-94
2021/09/16 10:28:04;;;;;;;10.30;7.07;;;18.20;99.90;;;;;;5056050;28;20017;-96
2021/09/16 10:30:32;;;;;;;6.78;5.10;;;18.10;99.90;;;;;;5057799;28;20121;-94
2021/09/16 10:33:12;;;;;;;14.15;8.57;;;18.10;99.90;;;;;;5057723;28;20082;-96
2021/09/16 10:35:59;;;;;;;13.85;8.63;;;18.10;99.90;;;;;;5062821;28;20369;-95
2021/09/16 10:38:27;;;;;;;11.48;7.82;;;18.20;99.90;;;;;;5064153;28;20056;-95
2021/09/16 10:41:13;;;;;;;13.93;11.00;;;18.40;99.90;;;;;;5075431;28;20044;-95
2021/09/16 10:43:41;;;;;;;11.73;8.77;;;18.50;99.90;;;;;;5077267;28;20032;-96
2021/09/16 10:46:28;;;;;;;13.82;9.27;;;18.60;99.90;;;;;;5060170;28;20021;-96
2021/09/16 10:48:56;;;;;;;17.17;9.88;;;18.70;99.90;;;;;;5042428;28;20045;-96
2021/09/16 10:51:36;;;;;;;19.65;13.63;;;18.50;99.90;;;;;;5057276;28;20021;-95
2021/09/16 10:54:02;;;;;;;15.55;10.48;;;18.50;99.90;;;;;;5056297;28;20049;-96
2021/09/16 10:56:38;;;;;;;14.38;11.05;;;18.50;99.90;;;;;;5057411;28;20036;-96
2021/09/16 10:59:04;;;;;;;13.00;9.73;;;18.50;99.90;;;;;;5056104;28;20049;-95
2021/09/16 11:01:53;;;;;;;21.20;14.93;;;18.60;99.90;;;;;;5056539;28;20021;-94
2021/09/16 11:04:20;;;;;;;21.40;15.07;;;18.30;99.90;;;;;;5055996;28;20029;-95
2021/09/16 11:06:46;;;;;;;17.40;13.18;;;18.20;99.90;;;;;;5056292;28;20032;-94
2021/09/16 11:09:13;;;;;;;15.02;11.18;;;18.00;99.90;;;;;;5056428;28;20104;-94
2021/09/16 11:11:58;;;;;;;17.92;14.32;;;18.00;99.90;;;;;;5056657;28;20035;-93
2021/09/16 11:14:44;;;;;;;21.40;14.95;;;18.00;99.90;;;;;;5056591;28;20021;-94
2021/09/16 11:17:11;;;;;;;17.00;15.20;;;18.30;99.90;;;;;;5056063;28;20436;-93
2021/09/16 11:20:11;;;;;;;16.92;14.25;;;18.50;99.90;;;;;;5056339;28;20036;-93
2021/09/16 11:22:37;;;;;;;17.58;13.18;;;18.50;99.90;;;;;;5057988;28;20049;-94
2021/09/16 11:25:06;;;;;;;19.13;16.00;;;18.60;99.90;;;;;;5056961;28;20032;-93
2021/09/16 11:27:40;;;;;;;19.05;15.10;;;18.50;99.90;;;;;;5057045;28;20053;-94
2021/09/16 11:30:14;;;;;;;18.60;13.40;;;18.40;99.90;;;;;;5057832;28;20411;-93
2021/09/16 11:32:41;;;;;;;20.67;15.73;;;18.40;99.90;;;;;;5059281;28;20374;-96
2021/09/16 11:35:18;;;;;;;20.30;15.90;;;18.30;99.90;;;;;;5056961;28;20025;-96
2021/09/16 11:37:49;;;;;;;18.30;14.35;;;18.30;99.90;;;;;;5055077;28;20449;-95
2021/09/16 11:40:24;;;;;;;19.08;13.75;;;18.40;99.90;;;;;;5055726;28;20033;-93
2021/09/16 11:42:53;;;;;;;16.13;13.20;;;18.40;99.90;;;;;;5055726;28;20024;-95
2021/09/16 11:45:23;;;;;;;18.02;13.48;;;18.30;99.90;;;;;;5055327;28;20017;-93
2021/09/16 11:48:04;;;;;;;11.98;10.30;;;18.30;99.90;;;;;;5055764;28;20081;-93
2021/09/16 11:50:33;;;;;;;19.38;15.40;;;18.50;99.90;;;;;;5054602;28;20059;-94
2021/09/16 11:53:21;;;;;;;19.08;14.13;;;18.60;99.90;;;;;;5052301;28;20113;-95
2021/09/16 11:55:49;;;;;;;18.60;13.52;;;18.80;99.90;;;;;;5018560;28;20036;-93
2021/09/16 11:58:20;;;;;;;12.10;10.55;;;18.60;99.90;;;;;;5020890;28;20064;-91
2021/09/16 12:00:59;;;;;;;14.82;11.68;;;18.60;99.90;;;;;;5021740;28;20030;-94
2021/09/16 12:03:25;;;;;;;15.40;11.38;;;18.50;99.90;;;;;;5037505;28;20024;-93
2021/09/16 12:06:02;;;;;;;13.45;10.93;;;18.50;99.90;;;;;;5040209;28;20042;-94
2021/09/16 12:08:29;;;;;;;15.45;11.50;;;18.50;99.90;;;;;;5021011;28;20017;-93
2021/09/16 12:10:56;;;;;;;13.70;10.90;;;18.40;99.90;;;;;;5019131;28;20036;-93
2021/09/16 12:13:25;;;;;;;15.18;12.10;;;18.50;99.90;;;;;;5017935;28;20021;-92
2021/09/16 12:16:02;;;;;;;17.92;12.93;;;18.40;99.90;;;;;;5018245;28;20036;-93
2021/09/16 12:18:28;;;;;;;18.63;11.73;;;18.40;99.90;;;;;;5017596;28;20025;-92
2021/09/16 12:20:54;;;;;;;13.50;11.18;;;18.40;99.90;;;;;;5017215;28;20032;-92
2021/09/16 12:23:21;;;;;;;14.00;10.38;;;18.40;99.90;;;;;;5034747;28;20017;-92
2021/09/16 12:25:57;;;;;;;11.80;9.57;;;18.60;99.90;;;;;;5017358;28;20026;-93
2021/09/16 12:28:24;;;;;;;11.15;9.02;;;18.90;99.90;;;;;;5017039;28;20014;-92
2021/09/16 12:30:49;;;;;;;11.82;8.23;;;19.30;99.90;;;;;;5016760;28;20029;-92
2021/09/16 12:33:32;;;;;;;11.88;8.80;;;19.60;99.90;;;;;;5033829;28;20041;-92
2021/09/16 12:36:09;;;;;;;9.32;7.90;;;19.50;99.90;;;;;;5017101;28;20057;-92
2021/09/16 12:39:03;;;;;;;11.23;8.95;;;19.50;99.90;;;;;;5033995;28;20397;-92
2021/09/16 12:41:33;;;;;;;13.55;9.52;;;19.10;99.90;;;;;;5016729;28;20064;-91
2021/09/16 12:44:24;;;;;;;9.80;8.43;;;19.20;99.90;;;;;;5017721;28;20128;-92
2021/09/16 12:46:58;;;;;;;12.05;9.30;;;18.90;99.90;;;;;;5016233;28;20516;-92